sensor_id;sensor_type;location;lat;lon;timestamp;temperature;humidity
24614;DHT22;12760;46.296;25.290;2022-12-17T00:01:32;10.30;99.90
24614;DHT22;12760;46.296;25.290;2022-12-17T00:04:16;10.30;99.90
24614;DHT22;12760;46.296;25.290;2022-12-17T00:07:00;10.30;99.90
24614;DHT22;12760;46.296;25.290;2022-12-17T00:09:45;10.30;99.90
24614;DHT22;12760;46.296;25.290;2022-12-17T00:12:29;10.30;99.90
24614;DHT22;12760;46.296;25.290;2022-12-17T00:15:13;10.20;99.90
24614;DHT22;12760;46.296;25.290;2022-12-17T00:18:07;10.20;99.90
24614;DHT22;12760;46.296;25.290;2022-12-17T00:20:55;10.20;99.90
24614;DHT22;12760;46.296;25.290;2022-12-17T00:23:39;10.20;99.90
24614;DHT22;12760;46.296;25.290;2022-12-17T00:26:24;10.20;99.90
24614;DHT22;12760;46.296;25.290;2022-12-17T00:29:08;10.20;99.90
24614;DHT22;12760;46.296;25.290;2022-12-17T00:31:52;10.10;99.90
24614;DHT22;12760;46.296;25.290;2022-12-17T00:34:37;10.00;99.90
24614;DHT22;12760;46.296;25.290;2022-12-17T00:37:21;10.00;99.90
24614;DHT22;12760;46.296;25.290;2022-12-17T00:40:05;10.00;99.90
24614;DHT22;12760;46.296;25.290;2022-12-17T00:43:10;9.90;99.90
24614;DHT22;12760;46.296;25.290;2022-12-17T00:45:56;9.90;99.90
24614;DHT22;12760;46.296;25.290;2022-12-17T00:48:40;10.00;99.90
24614;DHT22;12760;46.296;25.290;2022-12-17T00:51:25;10.10;99.90
24614;DHT22;12760;46.296;25.290;2022-12-17T00:54:09;10.10;99.90
24614;DHT22;12760;46.296;25.290;2022-12-17T00:56:54;10.10;99.90
24614;DHT22;12760;46.296;25.290;2022-12-17T00:59:38;10.10;99.90
24614;DHT22;12760;46.296;25.290;2022-12-17T01:02:22;10.10;99.90
24614;DHT22;12760;46.296;25.290;2022-12-17T01:05:07;10.10;99.90
24614;DHT22;12760;46.296;25.290;2022-12-17T01:07:51;10.10;99.90
24614;DHT22;12760;46.296;25.290;2022-12-17T01:10:36;10.10;99.90
24614;DHT22;12760;46.296;25.290;2022-12-17T01:13:20;10.10;99.90
24614;DHT22;12760;46.296;25.290;2022-12-17T01:16:06;10.00;99.90
24614;DHT22;12760;46.296;25.290;2022-12-17T01:18:52;10.00;99.90
24614;DHT22;12760;46.296;25.290;2022-12-17T01:21:36;10.00;99.90
24614;DHT22;12760;46.296;25.290;2022-12-17T01:24:21;10.00;99.90
24614;DHT22;12760;46.296;25.290;2022-12-17T01:27:05;9.90;99.90
24614;DHT22;12760;46.296;25.290;2022-12-17T01:29:49;9.90;99.90
24614;DHT22;12760;46.296;25.290;2022-12-17T01:32:33;10.00;99.90
24614;DHT22;12760;46.296;25.290;2022-12-17T01:35:17;9.90;99.90
24614;DHT22;12760;46.296;25.290;2022-12-17T01:38:01;9.90;99.90
24614;DHT22;12760;46.296;25.290;2022-12-17T01:40:50;9.80;99.90
24614;DHT22;12760;46.296;25.290;2022-12-17T01:43:37;9.90;99.90
24614;DHT22;12760;46.296;25.290;2022-12-17T01:46:22;9.90;99.90
24614;DHT22;12760;46.296;25.290;2022-12-17T01:49:08;9.90;99.90
24614;DHT22;12760;46.296;25.290;2022-12-17T01:51:53;9.90;99.90
24614;DHT22;12760;46.296;25.290;2022-12-17T01:54:38;9.90;99.90
24614;DHT22;12760;46.296;25.290;2022-12-17T01:57:24;9.90;99.90
24614;DHT22;12760;46.296;25.290;2022-12-17T02:00:12;9.90;99.90
24614;DHT22;12760;46.296;25.290;2022-12-17T02:02:57;9.90;99.90
24614;DHT22;12760;46.296;25.290;2022-12-17T02:12:21;9.90;99.90
24614;DHT22;12760;46.296;25.290;2022-12-17T02:14:47;9.90;99.90
24614;DHT22;12760;46.296;25.290;2022-12-17T02:17:40;9.90;99.90
24614;DHT22;12760;46.296;25.290;2022-12-17T02:20:34;9.90;99.90
24614;DHT22;12760;46.296;25.290;2022-12-17T02:26:46;9.90;99.90
24614;DHT22;12760;46.296;25.290;2022-12-17T02:29:24;9.80;99.90
24614;DHT22;12760;46.296;25.290;2022-12-17T02:32:12;9.80;99.90
24614;DHT22;12760;46.296;25.290;2022-12-17T02:35:03;9.80;99.90
24614;DHT22;12760;46.296;25.290;2022-12-17T02:37:48;9.90;99.90
24614;DHT22;12760;46.296;25.290;2022-12-17T02:40:35;9.80;99.90
24614;DHT22;12760;46.296;25.290;2022-12-17T02:43:21;9.80;99.90
24614;DHT22;12760;46.296;25.290;2022-12-17T02:46:06;9.80;99.90
24614;DHT22;12760;46.296;25.290;2022-12-17T02:48:51;9.80;99.90
24614;DHT22;12760;46.296;25.290;2022-12-17T02:51:36;9.80;99.90
24614;DHT22;12760;46.296;25.290;2022-12-17T02:54:29;9.80;99.90
24614;DHT22;12760;46.296;25.290;2022-12-17T02:57:13;9.80;99.90
24614;DHT22;12760;46.296;25.290;2022-12-17T02:59:57;9.80;99.90
24614;DHT22;12760;46.296;25.290;2022-12-17T03:02:42;9.80;99.90
24614;DHT22;12760;46.296;25.290;2022-12-17T03:05:25;9.80;99.90
24614;DHT22;12760;46.296;25.290;2022-12-17T03:08:10;9.80;99.90
24614;DHT22;12760;46.296;25.290;2022-12-17T03:10:54;9.80;99.90
24614;DHT22;12760;46.296;25.290;2022-12-17T03:13:38;9.90;99.90
24614;DHT22;12760;46.296;25.290;2022-12-17T03:16:22;9.80;99.90
24614;DHT22;12760;46.296;25.290;2022-12-17T03:19:07;9.90;99.90
24614;DHT22;12760;46.296;25.290;2022-12-17T03:21:52;9.80;99.90
24614;DHT22;12760;46.296;25.290;2022-12-17T03:24:36;9.80;99.90
24614;DHT22;12760;46.296;25.290;2022-12-17T03:27:20;9.90;99.90
24614;DHT22;12760;46.296;25.290;2022-12-17T03:30:04;9.80;99.90
24614;DHT22;12760;46.296;25.290;2022-12-17T03:32:49;9.80;99.90
24614;DHT22;12760;46.296;25.290;2022-12-17T03:35:33;9.80;99.90
24614;DHT22;12760;46.296;25.290;2022-12-17T03:38:17;9.80;99.90
24614;DHT22;12760;46.296;25.290;2022-12-17T03:41:01;9.80;99.90
24614;DHT22;12760;46.296;25.290;2022-12-17T03:43:45;9.80;99.90
24614;DHT22;12760;46.296;25.290;2022-12-17T03:46:29;9.80;99.90
24614;DHT22;12760;46.296;25.290;2022-12-17T03:49:13;9.80;99.90
24614;DHT22;12760;46.296;25.290;2022-12-17T03:51:57;9.80;99.90
24614;DHT22;12760;46.296;25.290;2022-12-17T03:54:41;9.80;99.90
24614;DHT22;12760;46.296;25.290;2022-12-17T03:57:25;9.80;99.90
24614;DHT22;12760;46.296;25.290;2022-12-17T04:00:10;9.70;99.90
24614;DHT22;12760;46.296;25.290;2022-12-17T04:02:54;9.80;99.90
24614;DHT22;12760;46.296;25.290;2022-12-17T04:05:38;9.80;99.90
24614;DHT22;12760;46.296;25.290;2022-12-17T04:08:22;9.80;99.90
24614;DHT22;12760;46.296;25.290;2022-12-17T04:11:07;9.80;99.90
24614;DHT22;12760;46.296;25.290;2022-12-17T04:13:51;9.80;99.90
24614;DHT22;12760;46.296;25.290;2022-12-17T04:16:35;9.70;99.90
24614;DHT22;12760;46.296;25.290;2022-12-17T04:19:19;9.80;99.90
24614;DHT22;12760;46.296;25.290;2022-12-17T04:22:04;9.70;99.90
24614;DHT22;12760;46.296;25.290;2022-12-17T04:24:48;9.70;99.90
24614;DHT22;12760;46.296;25.290;2022-12-17T04:27:32;9.70;99.90
24614;DHT22;12760;46.296;25.290;2022-12-17T04:30:16;9.60;99.90
24614;DHT22;12760;46.296;25.290;2022-12-17T04:33:00;9.70;99.90
24614;DHT22;12760;46.296;25.290;2022-12-17T04:35:44;9.70;99.90
24614;DHT22;12760;46.296;25.290;2022-12-17T04:38:28;9.50;99.90
24614;DHT22;12760;46.296;25.290;2022-12-17T04:41:13;9.50;99.90
24614;DHT22;12760;46.296;25.290;2022-12-17T04:43:57;9.60;99.90
24614;DHT22;12760;46.296;25.290;2022-12-17T04:46:41;9.60;99.90
24614;DHT22;12760;46.296;25.290;2022-12-17T04:49:25;9.60;99.90
24614;DHT22;12760;46.296;25.290;2022-12-17T04:52:09;9.70;99.90
24614;DHT22;12760;46.296;25.290;2022-12-17T04:54:53;9.70;99.90
24614;DHT22;12760;46.296;25.290;2022-12-17T04:57:37;9.70;99.90
24614;DHT22;12760;46.296;25.290;2022-12-17T05:00:22;9.70;99.90
24614;DHT22;12760;46.296;25.290;2022-12-17T05:03:10;9.60;99.90
24614;DHT22;12760;46.296;25.290;2022-12-17T05:05:55;9.50;99.90
24614;DHT22;12760;46.296;25.290;2022-12-17T05:08:39;9.60;99.90
24614;DHT22;12760;46.296;25.290;2022-12-17T05:11:23;9.60;99.90
24614;DHT22;12760;46.296;25.290;2022-12-17T05:14:07;9.70;99.90
24614;DHT22;12760;46.296;25.290;2022-12-17T05:16:51;9.60;99.90
24614;DHT22;12760;46.296;25.290;2022-12-17T05:19:35;9.70;99.90
24614;DHT22;12760;46.296;25.290;2022-12-17T05:22:20;9.70;99.90
24614;DHT22;12760;46.296;25.290;2022-12-17T05:25:04;9.80;99.90
24614;DHT22;12760;46.296;25.290;2022-12-17T05:27:48;9.90;99.90
24614;DHT22;12760;46.296;25.290;2022-12-17T05:30:32;9.90;99.90
24614;DHT22;12760;46.296;25.290;2022-12-17T05:33:16;9.90;99.90
24614;DHT22;12760;46.296;25.290;2022-12-17T05:36:01;9.90;99.90
24614;DHT22;12760;46.296;25.290;2022-12-17T05:38:46;9.90;99.90
24614;DHT22;12760;46.296;25.290;2022-12-17T05:41:31;9.90;99.90
24614;DHT22;12760;46.296;25.290;2022-12-17T05:44:15;10.00;99.90
24614;DHT22;12760;46.296;25.290;2022-12-17T05:46:59;9.90;99.90
24614;DHT22;12760;46.296;25.290;2022-12-17T05:49:43;9.90;99.90
24614;DHT22;12760;46.296;25.290;2022-12-17T05:52:27;9.90;99.90
24614;DHT22;12760;46.296;25.290;2022-12-17T05:55:11;9.90;99.90
24614;DHT22;12760;46.296;25.290;2022-12-17T05:58:08;9.90;99.90
24614;DHT22;12760;46.296;25.290;2022-12-17T06:01:04;9.90;99.90
24614;DHT22;12760;46.296;25.290;2022-12-17T06:03:48;10.00;99.90
24614;DHT22;12760;46.296;25.290;2022-12-17T06:06:32;10.00;99.90
24614;DHT22;12760;46.296;25.290;2022-12-17T06:09:16;10.00;99.90
24614;DHT22;12760;46.296;25.290;2022-12-17T06:12:01;10.10;99.90
24614;DHT22;12760;46.296;25.290;2022-12-17T06:14:45;10.10;99.90
24614;DHT22;12760;46.296;25.290;2022-12-17T06:17:29;10.00;99.90
24614;DHT22;12760;46.296;25.290;2022-12-17T06:20:14;9.90;99.90
24614;DHT22;12760;46.296;25.290;2022-12-17T06:23:07;9.90;99.90
24614;DHT22;12760;46.296;25.290;2022-12-17T06:25:52;9.90;99.90
24614;DHT22;12760;46.296;25.290;2022-12-17T06:28:38;9.90;99.90
24614;DHT22;12760;46.296;25.290;2022-12-17T06:31:22;10.00;99.90
24614;DHT22;12760;46.296;25.290;2022-12-17T06:34:06;10.10;99.90
24614;DHT22;12760;46.296;25.290;2022-12-17T06:36:50;10.00;99.90
24614;DHT22;12760;46.296;25.290;2022-12-17T06:39:34;10.00;99.90
24614;DHT22;12760;46.296;25.290;2022-12-17T06:42:18;10.10;99.90
24614;DHT22;12760;46.296;25.290;2022-12-17T06:45:03;10.10;99.90
24614;DHT22;12760;46.296;25.290;2022-12-17T06:47:47;10.10;99.90
24614;DHT22;12760;46.296;25.290;2022-12-17T06:50:31;10.10;99.90
24614;DHT22;12760;46.296;25.290;2022-12-17T06:53:15;10.10;99.90
24614;DHT22;12760;46.296;25.290;2022-12-17T06:55:59;10.20;99.90
24614;DHT22;12760;46.296;25.290;2022-12-17T06:58:43;10.20;99.90
24614;DHT22;12760;46.296;25.290;2022-12-17T07:01:28;10.20;99.90
24614;DHT22;12760;46.296;25.290;2022-12-17T07:04:12;10.20;99.90
24614;DHT22;12760;46.296;25.290;2022-12-17T07:06:56;10.20;99.90
24614;DHT22;12760;46.296;25.290;2022-12-17T07:09:40;10.30;99.90
24614;DHT22;12760;46.296;25.290;2022-12-17T07:12:24;10.30;99.90
24614;DHT22;12760;46.296;25.290;2022-12-17T07:15:09;10.30;99.90
24614;DHT22;12760;46.296;25.290;2022-12-17T07:17:58;10.30;99.90
24614;DHT22;12760;46.296;25.290;2022-12-17T07:20:42;10.30;99.90
24614;DHT22;12760;46.296;25.290;2022-12-17T07:23:26;10.30;99.90
24614;DHT22;12760;46.296;25.290;2022-12-17T07:26:10;10.30;99.90
24614;DHT22;12760;46.296;25.290;2022-12-17T07:28:54;10.30;99.90
24614;DHT22;12760;46.296;25.290;2022-12-17T07:31:38;10.40;99.90
24614;DHT22;12760;46.296;25.290;2022-12-17T07:34:23;10.40;99.90
24614;DHT22;12760;46.296;25.290;2022-12-17T07:37:07;10.40;99.90
24614;DHT22;12760;46.296;25.290;2022-12-17T07:39:51;10.40;99.90
24614;DHT22;12760;46.296;25.290;2022-12-17T07:42:37;10.40;99.90
24614;DHT22;12760;46.296;25.290;2022-12-17T07:45:21;10.40;99.90
24614;DHT22;12760;46.296;25.290;2022-12-17T07:48:05;10.40;99.90
24614;DHT22;12760;46.296;25.290;2022-12-17T07:50:49;10.40;99.90
24614;DHT22;12760;46.296;25.290;2022-12-17T07:53:34;10.40;99.90
24614;DHT22;12760;46.296;25.290;2022-12-17T07:56:18;10.40;99.90
24614;DHT22;12760;46.296;25.290;2022-12-17T07:59:03;10.40;99.90
24614;DHT22;12760;46.296;25.290;2022-12-17T08:01:47;10.40;99.90
24614;DHT22;12760;46.296;25.290;2022-12-17T08:04:31;10.40;99.90
24614;DHT22;12760;46.296;25.290;2022-12-17T08:07:16;10.50;99.90
24614;DHT22;12760;46.296;25.290;2022-12-17T08:10:00;10.50;99.90
24614;DHT22;12760;46.296;25.290;2022-12-17T08:13:02;10.50;99.90
24614;DHT22;12760;46.296;25.290;2022-12-17T08:15:47;10.50;99.90
24614;DHT22;12760;46.296;25.290;2022-12-17T08:18:32;10.40;99.90
24614;DHT22;12760;46.296;25.290;2022-12-17T08:21:16;10.40;99.90
24614;DHT22;12760;46.296;25.290;2022-12-17T08:24:00;10.50;99.90
24614;DHT22;12760;46.296;25.290;2022-12-17T08:26:44;10.50;99.90
24614;DHT22;12760;46.296;25.290;2022-12-17T08:29:28;10.50;99.90
24614;DHT22;12760;46.296;25.290;2022-12-17T08:32:12;10.50;99.90
24614;DHT22;12760;46.296;25.290;2022-12-17T08:34:56;10.50;99.90
24614;DHT22;12760;46.296;25.290;2022-12-17T08:37:40;10.60;99.90
24614;DHT22;12760;46.296;25.290;2022-12-17T08:40:24;10.70;99.90
24614;DHT22;12760;46.296;25.290;2022-12-17T08:43:09;10.80;99.90
24614;DHT22;12760;46.296;25.290;2022-12-17T08:45:53;10.90;99.90
24614;DHT22;12760;46.296;25.290;2022-12-17T08:48:37;10.90;99.90
24614;DHT22;12760;46.296;25.290;2022-12-17T08:51:22;11.00;99.90
24614;DHT22;12760;46.296;25.290;2022-12-17T08:54:07;10.90;99.90
24614;DHT22;12760;46.296;25.290;2022-12-17T08:56:52;11.00;99.90
24614;DHT22;12760;46.296;25.290;2022-12-17T08:59:36;11.00;99.90
24614;DHT22;12760;46.296;25.290;2022-12-17T09:02:20;11.00;99.90
24614;DHT22;12760;46.296;25.290;2022-12-17T09:05:05;11.00;99.90
24614;DHT22;12760;46.296;25.290;2022-12-17T09:07:58;11.00;99.90
24614;DHT22;12760;46.296;25.290;2022-12-17T09:10:42;11.10;99.90
24614;DHT22;12760;46.296;25.290;2022-12-17T09:13:26;11.10;99.90
24614;DHT22;12760;46.296;25.290;2022-12-17T09:16:10;11.20;99.90
24614;DHT22;12760;46.296;25.290;2022-12-17T09:18:54;11.20;99.90
24614;DHT22;12760;46.296;25.290;2022-12-17T09:21:38;11.20;99.90
24614;DHT22;12760;46.296;25.290;2022-12-17T09:24:22;11.20;99.90
24614;DHT22;12760;46.296;25.290;2022-12-17T09:27:06;11.30;99.90
24614;DHT22;12760;46.296;25.290;2022-12-17T09:29:50;11.30;99.90
24614;DHT22;12760;46.296;25.290;2022-12-17T09:32:34;11.40;99.90
24614;DHT22;12760;46.296;25.290;2022-12-17T09:35:18;11.50;99.90
24614;DHT22;12760;46.296;25.290;2022-12-17T09:38:02;11.50;99.90
24614;DHT22;12760;46.296;25.290;2022-12-17T09:40:49;11.50;99.90
24614;DHT22;12760;46.296;25.290;2022-12-17T09:46:38;11.50;99.90
24614;DHT22;12760;46.296;25.290;2022-12-17T09:49:25;11.60;99.90
24614;DHT22;12760;46.296;25.290;2022-12-17T09:52:23;11.60;99.90
24614;DHT22;12760;46.296;25.290;2022-12-17T09:55:15;11.60;99.90
24614;DHT22;12760;46.296;25.290;2022-12-17T09:58:01;11.50;99.90
24614;DHT22;12760;46.296;25.290;2022-12-17T10:00:46;11.50;99.90
24614;DHT22;12760;46.296;25.290;2022-12-17T10:03:32;11.50;99.90
24614;DHT22;12760;46.296;25.290;2022-12-17T10:06:20;11.60;99.90
24614;DHT22;12760;46.296;25.290;2022-12-17T10:09:14;11.60;99.90
24614;DHT22;12760;46.296;25.290;2022-12-17T10:12:23;11.60;99.90
24614;DHT22;12760;46.296;25.290;2022-12-17T10:15:11;11.60;99.90
24614;DHT22;12760;46.296;25.290;2022-12-17T10:17:56;11.60;99.90
24614;DHT22;12760;46.296;25.290;2022-12-17T10:20:46;11.60;99.90
24614;DHT22;12760;46.296;25.290;2022-12-17T10:23:33;11.60;99.90
24614;DHT22;12760;46.296;25.290;2022-12-17T10:26:21;11.60;99.90
24614;DHT22;12760;46.296;25.290;2022-12-17T10:29:21;11.60;99.90
24614;DHT22;12760;46.296;25.290;2022-12-17T10:32:20;11.60;99.90
24614;DHT22;12760;46.296;25.290;2022-12-17T10:37:59;11.70;99.90
24614;DHT22;12760;46.296;25.290;2022-12-17T10:40:44;11.70;99.90
24614;DHT22;12760;46.296;25.290;2022-12-17T10:43:36;11.70;99.90
24614;DHT22;12760;46.296;25.290;2022-12-17T10:46:30;11.70;99.90
24614;DHT22;12760;46.296;25.290;2022-12-17T10:49:19;11.70;99.90
24614;DHT22;12760;46.296;25.290;2022-12-17T10:55:24;11.80;99.90
24614;DHT22;12760;46.296;25.290;2022-12-17T10:58:22;11.80;99.90
24614;DHT22;12760;46.296;25.290;2022-12-17T11:01:10;11.80;99.90
24614;DHT22;12760;46.296;25.290;2022-12-17T11:03:58;11.70;99.90
24614;DHT22;12760;46.296;25.290;2022-12-17T11:06:46;11.80;99.90
24614;DHT22;12760;46.296;25.290;2022-12-17T11:16:03;11.90;99.90
24614;DHT22;12760;46.296;25.290;2022-12-17T11:18:56;11.90;99.90
24614;DHT22;12760;46.296;25.290;2022-12-17T11:21:46;11.90;99.90
24614;DHT22;12760;46.296;25.290;2022-12-17T11:25:20;12.00;99.90
24614;DHT22;12760;46.296;25.290;2022-12-17T11:27:47;12.00;99.90
24614;DHT22;12760;46.296;25.290;2022-12-17T11:30:39;12.00;99.90
24614;DHT22;12760;46.296;25.290;2022-12-17T11:33:40;12.00;99.90
24614;DHT22;12760;46.296;25.290;2022-12-17T11:36:41;12.00;99.90
24614;DHT22;12760;46.296;25.290;2022-12-17T11:45:19;12.10;99.90
24614;DHT22;12760;46.296;25.290;2022-12-17T11:51:17;12.10;99.90
24614;DHT22;12760;46.296;25.290;2022-12-17T11:54:19;12.20;99.90
24614;DHT22;12760;46.296;25.290;2022-12-17T12:00:18;12.20;99.90
24614;DHT22;12760;46.296;25.290;2022-12-17T12:06:27;12.20;99.90
24614;DHT22;12760;46.296;25.290;2022-12-17T12:09:23;12.20;99.90
24614;DHT22;12760;46.296;25.290;2022-12-17T12:15:23;12.20;99.90
24614;DHT22;12760;46.296;25.290;2022-12-17T12:33:04;12.10;99.90
24614;DHT22;12760;46.296;25.290;2022-12-17T12:35:58;12.20;99.90
24614;DHT22;12760;46.296;25.290;2022-12-17T12:38:43;12.10;99.90
24614;DHT22;12760;46.296;25.290;2022-12-17T12:41:36;12.10;99.90
24614;DHT22;12760;46.296;25.290;2022-12-17T12:44:43;12.20;99.90
24614;DHT22;12760;46.296;25.290;2022-12-17T12:47:45;12.10;99.90
24614;DHT22;12760;46.296;25.290;2022-12-17T12:50:54;12.20;99.90
24614;DHT22;12760;46.296;25.290;2022-12-17T12:53:41;12.20;99.90
24614;DHT22;12760;46.296;25.290;2022-12-17T12:56:28;12.30;99.90
24614;DHT22;12760;46.296;25.290;2022-12-17T12:59:26;12.20;99.90
24614;DHT22;12760;46.296;25.290;2022-12-17T13:02:17;12.10;99.90
24614;DHT22;12760;46.296;25.290;2022-12-17T13:10:35;11.90;99.90
24614;DHT22;12760;46.296;25.290;2022-12-17T13:15:40;12.10;99.90
24614;DHT22;12760;46.296;25.290;2022-12-17T13:21:00;12.10;99.90
24614;DHT22;12760;46.296;25.290;2022-12-17T13:23:35;12.00;99.90
24614;DHT22;12760;46.296;25.290;2022-12-17T13:31:29;12.10;99.90
24614;DHT22;12760;46.296;25.290;2022-12-17T13:41:56;11.80;99.90
24614;DHT22;12760;46.296;25.290;2022-12-17T13:44:24;11.80;99.90
24614;DHT22;12760;46.296;25.290;2022-12-17T13:46:53;11.70;99.90
24614;DHT22;12760;46.296;25.290;2022-12-17T13:49:23;11.70;99.90
24614;DHT22;12760;46.296;25.290;2022-12-17T13:52:19;11.70;99.90
24614;DHT22;12760;46.296;25.290;2022-12-17T13:54:45;11.70;99.90
24614;DHT22;12760;46.296;25.290;2022-12-17T13:57:15;11.70;99.90
24614;DHT22;12760;46.296;25.290;2022-12-17T14:00:02;11.60;99.90
24614;DHT22;12760;46.296;25.290;2022-12-17T14:02:33;11.50;99.90
24614;DHT22;12760;46.296;25.290;2022-12-17T14:05:03;11.50;99.90
24614;DHT22;12760;46.296;25.290;2022-12-17T14:07:31;11.50;99.90
24614;DHT22;12760;46.296;25.290;2022-12-17T14:09:58;11.50;99.90
24614;DHT22;12760;46.296;25.290;2022-12-17T14:12:25;11.40;99.90
24614;DHT22;12760;46.296;25.290;2022-12-17T14:14:56;11.50;99.90
24614;DHT22;12760;46.296;25.290;2022-12-17T14:17:28;11.40;99.90
24614;DHT22;12760;46.296;25.290;2022-12-17T14:20:04;11.40;99.90
24614;DHT22;12760;46.296;25.290;2022-12-17T14:22:45;11.50;99.90
24614;DHT22;12760;46.296;25.290;2022-12-17T14:25:19;11.50;99.90
24614;DHT22;12760;46.296;25.290;2022-12-17T14:28:01;11.60;99.90
24614;DHT22;12760;46.296;25.290;2022-12-17T14:33:01;11.50;99.90
24614;DHT22;12760;46.296;25.290;2022-12-17T14:35:29;11.50;99.90
24614;DHT22;12760;46.296;25.290;2022-12-17T14:37:55;11.50;99.90
24614;DHT22;12760;46.296;25.290;2022-12-17T14:40:23;11.50;99.90
24614;DHT22;12760;46.296;25.290;2022-12-17T14:42:50;11.50;99.90
24614;DHT22;12760;46.296;25.290;2022-12-17T14:45:21;11.50;99.90
24614;DHT22;12760;46.296;25.290;2022-12-17T14:48:13;11.40;99.90
24614;DHT22;12760;46.296;25.290;2022-12-17T14:50:39;11.40;99.90
24614;DHT22;12760;46.296;25.290;2022-12-17T14:53:24;11.40;99.90
24614;DHT22;12760;46.296;25.290;2022-12-17T14:55:55;11.40;99.90
24614;DHT22;12760;46.296;25.290;2022-12-17T14:58:23;11.40;99.90
24614;DHT22;12760;46.296;25.290;2022-12-17T15:01:10;11.30;99.90
24614;DHT22;12760;46.296;25.290;2022-12-17T15:03:39;11.40;99.90
24614;DHT22;12760;46.296;25.290;2022-12-17T15:06:08;11.40;99.90
24614;DHT22;12760;46.296;25.290;2022-12-17T15:08:45;11.40;99.90
24614;DHT22;12760;46.296;25.290;2022-12-17T15:11:13;11.30;99.90
24614;DHT22;12760;46.296;25.290;2022-12-17T15:13:39;11.20;99.90
24614;DHT22;12760;46.296;25.290;2022-12-17T15:16:06;11.20;99.90
24614;DHT22;12760;46.296;25.290;2022-12-17T15:18:32;11.20;99.90
24614;DHT22;12760;46.296;25.290;2022-12-17T15:20:57;11.20;99.90
24614;DHT22;12760;46.296;25.290;2022-12-17T15:23:24;11.10;99.90
24614;DHT22;12760;46.296;25.290;2022-12-17T15:25:51;11.00;99.90
24614;DHT22;12760;46.296;25.290;2022-12-17T15:28:19;10.90;99.90
24614;DHT22;12760;46.296;25.290;2022-12-17T15:30:46;10.90;99.90
24614;DHT22;12760;46.296;25.290;2022-12-17T15:33:12;10.90;99.90
24614;DHT22;12760;46.296;25.290;2022-12-17T15:35:38;10.90;99.90
24614;DHT22;12760;46.296;25.290;2022-12-17T15:38:05;10.90;99.90
24614;DHT22;12760;46.296;25.290;2022-12-17T15:40:31;10.80;99.90
24614;DHT22;12760;46.296;25.290;2022-12-17T15:42:58;10.70;99.90
24614;DHT22;12760;46.296;25.290;2022-12-17T15:45:47;10.70;99.90
24614;DHT22;12760;46.296;25.290;2022-12-17T15:48:16;10.60;99.90
24614;DHT22;12760;46.296;25.290;2022-12-17T15:50:42;10.50;99.90
24614;DHT22;12760;46.296;25.290;2022-12-17T15:53:08;10.50;99.90
24614;DHT22;12760;46.296;25.290;2022-12-17T15:55:35;10.40;99.90
24614;DHT22;12760;46.296;25.290;2022-12-17T15:58:02;10.20;99.90
24614;DHT22;12760;46.296;25.290;2022-12-17T16:00:28;10.10;99.90
24614;DHT22;12760;46.296;25.290;2022-12-17T16:02:53;10.00;99.90
24614;DHT22;12760;46.296;25.290;2022-12-17T16:05:19;9.90;99.90
24614;DHT22;12760;46.296;25.290;2022-12-17T16:07:45;9.90;99.90
24614;DHT22;12760;46.296;25.290;2022-12-17T16:10:12;9.70;99.90
24614;DHT22;12760;46.296;25.290;2022-12-17T16:12:38;9.60;99.90
24614;DHT22;12760;46.296;25.290;2022-12-17T16:15:05;9.60;99.90
24614;DHT22;12760;46.296;25.290;2022-12-17T16:17:32;9.50;99.90
24614;DHT22;12760;46.296;25.290;2022-12-17T16:19:58;9.40;99.90
24614;DHT22;12760;46.296;25.290;2022-12-17T16:22:25;9.40;99.90
24614;DHT22;12760;46.296;25.290;2022-12-17T16:24:51;9.30;99.90
24614;DHT22;12760;46.296;25.290;2022-12-17T16:27:17;9.20;99.90
24614;DHT22;12760;46.296;25.290;2022-12-17T16:29:44;9.00;99.90
24614;DHT22;12760;46.296;25.290;2022-12-17T16:32:11;9.10;99.90
24614;DHT22;12760;46.296;25.290;2022-12-17T16:34:37;9.10;99.90
24614;DHT22;12760;46.296;25.290;2022-12-17T16:37:02;9.20;99.90
24614;DHT22;12760;46.296;25.290;2022-12-17T16:39:28;9.10;99.90
24614;DHT22;12760;46.296;25.290;2022-12-17T16:41:54;9.10;99.90
24614;DHT22;12760;46.296;25.290;2022-12-17T16:44:20;9.20;99.90
24614;DHT22;12760;46.296;25.290;2022-12-17T16:46:45;9.20;99.90
24614;DHT22;12760;46.296;25.290;2022-12-17T16:49:16;9.20;99.90
24614;DHT22;12760;46.296;25.290;2022-12-17T16:51:44;9.20;99.90
24614;DHT22;12760;46.296;25.290;2022-12-17T16:54:12;9.30;99.90
24614;DHT22;12760;46.296;25.290;2022-12-17T16:56:40;9.20;99.90
24614;DHT22;12760;46.296;25.290;2022-12-17T16:59:07;9.20;99.90
24614;DHT22;12760;46.296;25.290;2022-12-17T17:01:35;9.10;99.90
24614;DHT22;12760;46.296;25.290;2022-12-17T17:04:00;9.10;99.90
24614;DHT22;12760;46.296;25.290;2022-12-17T17:06:28;9.10;99.90
24614;DHT22;12760;46.296;25.290;2022-12-17T17:08:53;9.20;99.90
24614;DHT22;12760;46.296;25.290;2022-12-17T17:11:21;9.20;99.90
24614;DHT22;12760;46.296;25.290;2022-12-17T17:13:52;9.20;99.90
24614;DHT22;12760;46.296;25.290;2022-12-17T17:16:19;9.20;99.90
24614;DHT22;12760;46.296;25.290;2022-12-17T17:18:46;9.20;99.90
24614;DHT22;12760;46.296;25.290;2022-12-17T17:23:48;9.10;99.90
24614;DHT22;12760;46.296;25.290;2022-12-17T17:26:14;9.20;99.90
24614;DHT22;12760;46.296;25.290;2022-12-17T17:28:40;9.20;99.90
24614;DHT22;12760;46.296;25.290;2022-12-17T17:31:10;9.10;99.90
24614;DHT22;12760;46.296;25.290;2022-12-17T17:33:38;9.00;99.90
24614;DHT22;12760;46.296;25.290;2022-12-17T17:36:12;9.00;99.90
24614;DHT22;12760;46.296;25.290;2022-12-17T17:38:40;8.80;99.90
24614;DHT22;12760;46.296;25.290;2022-12-17T17:41:09;8.70;99.90
24614;DHT22;12760;46.296;25.290;2022-12-17T17:43:34;8.70;99.90
24614;DHT22;12760;46.296;25.290;2022-12-17T17:46:05;8.70;99.90
24614;DHT22;12760;46.296;25.290;2022-12-17T17:48:32;8.70;99.90
24614;DHT22;12760;46.296;25.290;2022-12-17T17:51:04;8.70;99.90
24614;DHT22;12760;46.296;25.290;2022-12-17T17:53:30;8.70;99.90
24614;DHT22;12760;46.296;25.290;2022-12-17T17:56:08;8.60;99.90
24614;DHT22;12760;46.296;25.290;2022-12-17T17:58:43;8.60;99.90
24614;DHT22;12760;46.296;25.290;2022-12-17T18:01:11;8.60;99.90
24614;DHT22;12760;46.296;25.290;2022-12-17T18:03:37;8.70;99.90
24614;DHT22;12760;46.296;25.290;2022-12-17T18:06:05;8.70;99.90
24614;DHT22;12760;46.296;25.290;2022-12-17T18:08:32;8.70;99.90
24614;DHT22;12760;46.296;25.290;2022-12-17T18:11:00;8.70;99.90
24614;DHT22;12760;46.296;25.290;2022-12-17T18:13:26;8.70;99.90
24614;DHT22;12760;46.296;25.290;2022-12-17T18:16:10;8.60;99.90
24614;DHT22;12760;46.296;25.290;2022-12-17T18:18:36;8.70;99.90